Terminal Aerodrome Forecast
Issued by NWS

Home | Current Version | Previous Version | Graphics & Text | Print | Product List | Glossary On
Versions: 1 2 3 4 5 6 7 8 9 10 11 12 13 14 15 16
000
FTUS43 KIWX 211122
TAFSBN
TAF
KSBN 211122Z 2112/2212 21007KT P6SM VCSH BKN035
      TEMPO 2113/2116 5SM -SHRA BR BKN025
     FM211800 25007KT P6SM BKN025
     FM220600 VRB04KT 2SM BR SKC=

USA.gov is the U.S. government's official web portal to all federal, state and local government web resources and services.